createdAt,value
2019-03-19T00:02:07.377Z,5.17
2019-03-19T00:04:36.727Z,5.47
2019-03-19T00:07:06.054Z,5.77
2019-03-19T00:09:35.404Z,5.37
2019-03-19T00:12:04.818Z,5.10
2019-03-19T00:14:34.145Z,5.23
2019-03-19T00:17:03.496Z,5.23
2019-03-19T00:19:32.812Z,5.30
2019-03-19T00:22:02.157Z,4.83
2019-03-19T00:24:31.485Z,4.20
2019-03-19T00:27:00.820Z,5.90
2019-03-19T00:29:30.126Z,4.90
2019-03-19T00:31:59.503Z,6.13
2019-03-19T00:34:28.959Z,5.20
2019-03-19T00:36:58.270Z,4.83
2019-03-19T00:39:27.685Z,4.33
2019-03-19T00:41:57.035Z,5.00
2019-03-19T00:44:26.367Z,4.83
2019-03-19T00:46:55.720Z,4.80
2019-03-19T00:49:25.079Z,5.37
2019-03-19T00:51:54.438Z,4.67
2019-03-19T00:54:23.765Z,4.40
2019-03-19T00:56:53.120Z,5.57
2019-03-19T00:59:22.448Z,5.33
2019-03-19T01:01:51.811Z,5.50
2019-03-19T01:04:21.265Z,4.43
2019-03-19T01:06:51.248Z,4.87
2019-03-19T01:09:20.614Z,5.30
2019-03-19T01:11:49.944Z,5.10
2019-03-19T01:14:19.260Z,5.20
2019-03-19T01:16:48.612Z,4.67
2019-03-19T01:19:18.010Z,5.33
2019-03-19T01:21:47.374Z,4.87
2019-03-19T01:24:16.699Z,5.60
2019-03-19T01:26:46.058Z,4.83
2019-03-19T01:29:15.392Z,5.67
2019-03-19T01:31:44.760Z,5.13
2019-03-19T01:34:14.113Z,5.23
2019-03-19T01:36:43.441Z,5.43
2019-03-19T01:39:12.801Z,5.70
2019-03-19T01:41:43.141Z,4.93
2019-03-19T01:44:14.281Z,5.00
2019-03-19T01:46:43.643Z,5.53
2019-03-19T01:49:13.017Z,4.93
2019-03-19T01:51:42.336Z,5.17
2019-03-19T01:54:11.673Z,4.43
2019-03-19T01:56:41.015Z,4.80
2019-03-19T01:59:10.351Z,5.50
2019-03-19T02:01:39.719Z,5.17
2019-03-19T02:04:09.065Z,4.17
2019-03-19T02:06:38.425Z,5.40
2019-03-19T02:09:09.847Z,4.90
2019-03-19T02:11:39.211Z,5.03
2019-03-19T02:14:08.551Z,4.53
2019-03-19T02:16:37.922Z,5.97
2019-03-19T02:19:07.275Z,6.30
2019-03-19T02:21:36.588Z,5.57
2019-03-19T02:24:05.882Z,4.90
2019-03-19T02:26:35.219Z,5.50
2019-03-19T02:29:04.526Z,5.47
2019-03-19T02:31:34.602Z,5.73
2019-03-19T02:34:03.957Z,5.73
2019-03-19T02:36:33.345Z,4.53
2019-03-19T02:39:02.668Z,5.33
2019-03-19T02:41:32.095Z,5.73
2019-03-19T02:44:01.442Z,5.63
2019-03-19T02:46:30.794Z,6.07
2019-03-19T02:49:00.160Z,5.20
2019-03-19T02:51:29.597Z,5.90
2019-03-19T02:53:58.920Z,5.57
2019-03-19T02:56:33.041Z,5.90
2019-03-19T02:58:59.318Z,5.97
2019-03-19T03:01:28.634Z,5.57
2019-03-19T03:03:57.974Z,5.50
2019-03-19T03:06:27.313Z,5.93
2019-03-19T03:08:56.691Z,5.50
2019-03-19T03:11:26.002Z,5.80
2019-03-19T03:13:55.304Z,6.03
2019-03-19T03:16:24.751Z,5.43
2019-03-19T03:18:54.055Z,6.17
2019-03-19T03:21:23.414Z,5.40
2019-03-19T03:23:52.777Z,5.53
2019-03-19T03:26:22.088Z,5.13
2019-03-19T03:28:51.503Z,5.93
2019-03-19T03:31:20.867Z,5.20
2019-03-19T03:33:50.149Z,5.47
2019-03-19T03:36:19.480Z,4.97
2019-03-19T03:38:48.814Z,5.97
2019-03-19T03:41:18.148Z,4.80
2019-03-19T03:43:47.489Z,4.33
2019-03-19T03:46:16.824Z,6.33
2019-03-19T03:48:46.140Z,4.73
2019-03-19T03:51:15.477Z,5.27
2019-03-19T03:53:44.801Z,5.60
2019-03-19T03:56:14.158Z,4.70
2019-03-19T03:58:43.475Z,5.93
2019-03-19T04:01:13.026Z,5.67
2019-03-19T04:03:42.544Z,5.60
2019-03-19T04:06:11.895Z,5.07
2019-03-19T04:08:41.251Z,5.13
2019-03-19T04:11:10.594Z,5.70
2019-03-19T04:13:41.400Z,5.20
2019-03-19T04:16:10.738Z,5.30
2019-03-19T04:18:41.864Z,7.03
2019-03-19T04:21:11.176Z,6.27
2019-03-19T04:23:42.101Z,6.03
2019-03-19T04:26:11.536Z,5.77
2019-03-19T04:28:40.869Z,6.57
2019-03-19T04:31:10.250Z,5.17
2019-03-19T04:33:39.590Z,6.37
2019-03-19T04:36:08.922Z,5.77
2019-03-19T04:38:38.279Z,7.33
2019-03-19T04:41:07.696Z,6.27
2019-03-19T04:43:37.137Z,6.23
2019-03-19T04:46:06.464Z,5.97
2019-03-19T04:48:35.828Z,4.97
2019-03-19T04:51:05.180Z,6.00
2019-03-19T04:53:34.523Z,6.27
2019-03-19T04:56:03.858Z,6.07
2019-03-19T04:58:33.174Z,5.67
2019-03-19T05:01:02.504Z,5.93
2019-03-19T05:03:31.841Z,5.13
2019-03-19T05:06:01.187Z,6.40
2019-03-19T05:08:30.529Z,5.53
2019-03-19T05:10:59.890Z,6.63
2019-03-19T05:13:29.213Z,6.13
2019-03-19T05:15:58.553Z,5.97
2019-03-19T05:18:27.883Z,6.03
2019-03-19T05:20:57.218Z,6.17
2019-03-19T05:23:26.526Z,6.07
2019-03-19T05:25:55.869Z,6.50
2019-03-19T05:28:25.208Z,5.80
2019-03-19T05:30:54.554Z,5.83
2019-03-19T05:33:23.906Z,6.47
2019-03-19T05:35:53.238Z,6.33
2019-03-19T05:38:22.577Z,6.87
2019-03-19T05:40:51.906Z,5.80
2019-03-19T05:43:21.262Z,6.57
2019-03-19T05:45:50.558Z,6.33
2019-03-19T05:48:19.912Z,6.30
2019-03-19T05:50:49.269Z,6.27
2019-03-19T05:53:18.615Z,5.70
2019-03-19T05:55:47.922Z,6.30
2019-03-19T05:58:17.246Z,6.63
2019-03-19T06:00:46.595Z,6.03
2019-03-19T06:03:17.094Z,5.83
2019-03-19T06:05:46.441Z,5.53
2019-03-19T06:08:15.821Z,5.93
2019-03-19T06:10:45.347Z,5.53
2019-03-19T06:13:14.685Z,7.57
2019-03-19T06:15:44.003Z,7.97
2019-03-19T06:18:13.336Z,7.43
2019-03-19T06:20:42.663Z,6.77
2019-03-19T06:23:12.006Z,6.70
2019-03-19T06:25:42.333Z,6.60
2019-03-19T06:28:11.854Z,5.87
2019-03-19T06:30:41.328Z,5.70
2019-03-19T06:33:10.664Z,6.50
2019-03-19T06:35:39.990Z,6.97
2019-03-19T06:38:09.296Z,6.30
2019-03-19T06:40:38.631Z,5.97
2019-03-19T06:43:07.945Z,6.73
2019-03-19T06:45:37.291Z,6.13
2019-03-19T06:48:06.605Z,6.77
2019-03-19T06:50:44.631Z,8.73
2019-03-19T06:53:07.008Z,7.00
2019-03-19T06:55:36.354Z,6.57
2019-03-19T06:58:10.846Z,7.00
2019-03-19T07:00:37.848Z,5.27
2019-03-19T07:03:07.182Z,5.50
2019-03-19T07:05:36.516Z,6.60
2019-03-19T07:08:05.963Z,6.93
2019-03-19T07:10:35.315Z,6.07
2019-03-19T07:13:04.663Z,6.53
2019-03-19T07:15:33.989Z,5.83
2019-03-19T07:18:03.334Z,5.70
2019-03-19T07:20:59.766Z,5.60
2019-03-19T07:23:29.322Z,6.40
2019-03-19T07:25:58.670Z,5.27
2019-03-19T07:28:28.023Z,6.53
2019-03-19T07:30:57.364Z,5.53
2019-03-19T07:33:26.683Z,5.97
2019-03-19T07:35:56.040Z,5.27
2019-03-19T07:38:25.346Z,5.37
2019-03-19T07:40:55.925Z,4.70
2019-03-19T07:43:25.427Z,6.00
2019-03-19T07:45:54.763Z,5.73
2019-03-19T07:48:25.116Z,6.67
2019-03-19T07:50:54.483Z,4.80
2019-03-19T07:53:23.816Z,5.30
2019-03-19T07:55:54.655Z,5.40
2019-03-19T07:58:35.752Z,4.27
2019-03-19T08:00:56.157Z,5.13
2019-03-19T08:03:25.560Z,4.67
2019-03-19T08:05:54.890Z,5.50
2019-03-19T08:08:24.283Z,4.90
2019-03-19T08:10:53.625Z,4.57
2019-03-19T08:13:22.953Z,4.37
2019-03-19T08:15:54.605Z,4.20
2019-03-19T08:18:23.950Z,4.80
2019-03-19T08:20:53.256Z,4.07
2019-03-19T08:23:22.604Z,4.37
2019-03-19T08:25:51.909Z,4.83
2019-03-19T08:28:21.239Z,5.10
2019-03-19T08:30:50.575Z,4.80
2019-03-19T08:33:20.935Z,4.20
2019-03-19T08:35:52.351Z,4.37
2019-03-19T08:38:21.678Z,4.67
2019-03-19T08:40:51.157Z,3.57
2019-03-19T08:43:20.518Z,4.50
2019-03-19T08:45:49.815Z,4.27
2019-03-19T08:48:19.166Z,4.13
2019-03-19T08:50:48.477Z,3.63
2019-03-19T08:53:20.204Z,4.20
2019-03-19T08:55:49.537Z,3.90
2019-03-19T08:58:18.865Z,4.30
2019-03-19T09:00:48.212Z,3.87
2019-03-19T09:03:17.530Z,4.03
2019-03-19T09:05:47.903Z,3.93
2019-03-19T09:08:17.248Z,4.30
2019-03-19T09:10:46.596Z,4.03
2019-03-19T09:13:15.946Z,3.87
2019-03-19T09:15:45.299Z,3.93
2019-03-19T09:18:16.120Z,4.77
2019-03-19T09:20:45.521Z,3.67
2019-03-19T09:23:14.876Z,3.23
2019-03-19T09:25:44.191Z,4.10
2019-03-19T09:28:13.514Z,4.37
2019-03-19T09:30:42.854Z,4.30
2019-03-19T09:33:12.272Z,3.87
2019-03-19T09:35:41.645Z,4.10
2019-03-19T09:38:10.977Z,3.53
2019-03-19T09:40:40.323Z,3.93
2019-03-19T09:43:09.671Z,3.10
2019-03-19T09:45:41.383Z,3.63
2019-03-19T09:48:10.770Z,3.63
2019-03-19T09:50:40.076Z,2.80
2019-03-19T09:53:09.462Z,3.53
2019-03-19T09:55:41.129Z,3.57
2019-03-19T09:58:11.513Z,3.90
2019-03-19T10:00:42.959Z,3.93
2019-03-19T10:03:12.312Z,3.80
2019-03-19T10:05:41.639Z,4.00
2019-03-19T10:08:11.002Z,3.13
2019-03-19T10:10:40.380Z,3.10
2019-03-19T10:13:09.789Z,3.07
2019-03-19T10:15:39.160Z,3.43
2019-03-19T10:18:08.489Z,3.90
2019-03-19T10:20:37.822Z,3.33
2019-03-19T10:23:07.180Z,3.90
2019-03-19T10:25:38.064Z,4.07
2019-03-19T10:28:07.560Z,3.37
2019-03-19T10:30:36.989Z,3.57
2019-03-19T10:33:06.368Z,3.20
2019-03-19T10:35:35.718Z,3.40
2019-03-19T10:38:05.484Z,3.00
2019-03-19T10:40:34.825Z,2.73
2019-03-19T10:43:04.187Z,2.90
2019-03-19T10:45:33.730Z,3.13
2019-03-19T10:48:03.156Z,2.80
2019-03-19T10:50:32.499Z,4.57
2019-03-19T10:53:01.839Z,2.47
2019-03-19T10:55:31.284Z,2.50
2019-03-19T10:58:10.648Z,2.80
2019-03-19T11:00:31.802Z,2.70
2019-03-19T11:03:01.138Z,2.37
2019-03-19T11:05:32.304Z,2.57
2019-03-19T11:08:01.633Z,1.93
2019-03-19T11:10:30.974Z,2.60
2019-03-19T11:13:00.359Z,1.80
2019-03-19T11:15:31.618Z,2.23
2019-03-19T11:18:00.783Z,2.27
2019-03-19T11:20:30.122Z,2.93
2019-03-19T11:23:02.277Z,3.17
2019-03-19T11:25:31.616Z,2.50
2019-03-19T11:28:01.066Z,2.33
2019-03-19T11:30:30.452Z,1.50
2019-03-19T11:32:59.851Z,1.70
2019-03-19T11:35:29.420Z,2.90
2019-03-19T11:37:58.874Z,2.10
2019-03-19T11:40:28.228Z,2.90
2019-03-19T11:42:57.562Z,2.57
2019-03-19T11:45:27.014Z,2.10
2019-03-19T11:47:57.411Z,2.30
2019-03-19T11:50:26.746Z,2.13
2019-03-19T11:52:57.944Z,2.30
2019-03-19T11:55:27.301Z,2.30
2019-03-19T11:57:57.755Z,2.60
2019-03-19T12:00:42.886Z,1.93
2019-03-19T12:03:16.137Z,2.50
2019-03-19T12:05:43.534Z,2.47
2019-03-19T12:08:12.899Z,2.57
2019-03-19T12:10:42.230Z,2.50
2019-03-19T12:13:11.623Z,2.20
2019-03-19T12:15:40.958Z,2.30
2019-03-19T12:18:12.045Z,2.10
2019-03-19T12:20:41.384Z,2.20
2019-03-19T12:23:10.748Z,2.13
2019-03-19T12:25:40.106Z,2.73
2019-03-19T12:28:10.472Z,2.67
2019-03-19T12:30:39.829Z,2.50
2019-03-19T12:33:09.151Z,2.13
2019-03-19T12:35:39.614Z,2.50
2019-03-19T12:38:08.951Z,2.50
2019-03-19T12:40:38.415Z,2.80
2019-03-19T12:43:08.024Z,2.70
2019-03-19T12:45:38.509Z,3.00
2019-03-19T12:48:07.858Z,2.00
2019-03-19T12:50:37.185Z,2.07
2019-03-19T12:53:06.543Z,2.53
2019-03-19T12:55:35.917Z,2.47
2019-03-19T12:58:05.618Z,2.37
2019-03-19T13:00:35.187Z,2.47
2019-03-19T13:03:05.296Z,2.03
2019-03-19T13:05:34.684Z,2.47
2019-03-19T13:08:04.059Z,2.30
2019-03-19T13:10:33.414Z,2.03
2019-03-19T13:13:03.039Z,2.03
2019-03-19T13:15:32.432Z,2.40
2019-03-19T13:18:02.807Z,2.00
2019-03-19T13:20:32.156Z,1.90
2019-03-19T13:23:01.509Z,1.73
2019-03-19T13:25:30.960Z,1.30
2019-03-19T13:28:00.323Z,1.50
2019-03-19T13:30:30.717Z,1.53
2019-03-19T13:33:00.086Z,2.03
2019-03-19T13:35:29.530Z,1.33
2019-03-19T13:38:00.705Z,1.30
2019-03-19T13:40:30.063Z,1.17
2019-03-19T13:43:00.592Z,1.03
2019-03-19T13:45:29.925Z,1.20
2019-03-19T13:47:59.389Z,1.10
2019-03-19T13:50:28.731Z,0.90
2019-03-19T13:53:18.505Z,0.90
2019-03-19T13:55:48.920Z,0.90
2019-03-19T13:58:18.254Z,1.10
2019-03-19T14:00:55.344Z,1.10
2019-03-19T14:03:18.675Z,1.20
2019-03-19T14:05:47.997Z,0.90
2019-03-19T14:08:18.070Z,0.97
2019-03-19T14:10:47.670Z,0.97
2019-03-19T14:13:17.030Z,1.20
2019-03-19T14:15:46.377Z,1.03
2019-03-19T14:18:15.742Z,0.70
2019-03-19T14:20:45.095Z,1.20
2019-03-19T14:23:14.473Z,0.93
2019-03-19T14:25:43.810Z,1.23
2019-03-19T14:28:13.172Z,1.13
2019-03-19T14:30:42.553Z,0.70
2019-03-19T14:33:11.868Z,0.80
2019-03-19T14:35:41.208Z,0.60
2019-03-19T14:38:10.589Z,1.00
2019-03-19T14:40:40.035Z,0.90
2019-03-19T14:43:09.436Z,0.40
2019-03-19T14:45:38.815Z,0.60
2019-03-19T14:48:08.145Z,0.80
2019-03-19T14:50:37.513Z,0.40
2019-03-19T14:53:06.965Z,0.40
2019-03-19T14:55:36.743Z,0.30
2019-03-19T14:58:06.302Z,0.37
2019-03-19T15:00:35.684Z,0.20
2019-03-19T15:03:05.050Z,0.27
2019-03-19T15:05:34.447Z,0.27
2019-03-19T15:08:03.777Z,0.40
2019-03-19T15:10:33.169Z,0.60
2019-03-19T15:13:02.573Z,0.50
2019-03-19T15:15:31.937Z,0.60
2019-03-19T15:18:01.281Z,0.73
2019-03-19T15:20:30.747Z,0.90
2019-03-19T15:23:00.159Z,0.50
2019-03-19T15:25:29.519Z,0.80
2019-03-19T15:27:58.847Z,1.00
2019-03-19T15:30:28.246Z,0.90
2019-03-19T15:32:57.582Z,1.07
2019-03-19T15:35:26.929Z,1.00
2019-03-19T15:37:56.296Z,0.93
2019-03-19T15:40:25.629Z,0.70
2019-03-19T15:42:54.967Z,1.00
2019-03-19T15:45:24.387Z,0.90
2019-03-19T15:47:53.709Z,1.37
2019-03-19T15:50:23.067Z,1.03
2019-03-19T15:52:52.379Z,1.23
2019-03-19T15:55:21.758Z,1.27
2019-03-19T15:57:51.102Z,1.20
2019-03-19T16:00:20.447Z,1.30
2019-03-19T16:02:49.799Z,1.20
2019-03-19T16:05:19.161Z,1.20
2019-03-19T16:07:48.512Z,0.80
2019-03-19T16:10:17.936Z,1.07
2019-03-19T16:12:47.299Z,0.83
2019-03-19T16:15:16.825Z,1.30
2019-03-19T16:17:46.157Z,1.07
2019-03-19T16:20:15.706Z,1.20
2019-03-19T16:22:45.076Z,1.13
2019-03-19T16:25:14.563Z,1.23
2019-03-19T16:27:43.935Z,1.60
2019-03-19T16:30:14.043Z,1.00
2019-03-19T16:32:43.512Z,0.97
2019-03-19T16:35:13.104Z,1.17
2019-03-19T16:37:42.547Z,0.80
2019-03-19T16:40:17.262Z,1.10
2019-03-19T16:42:46.752Z,1.07
2019-03-19T16:45:17.996Z,1.47
2019-03-19T16:47:47.403Z,1.27
2019-03-19T16:50:16.744Z,1.10
2019-03-19T16:52:46.412Z,1.33
2019-03-19T16:55:16.096Z,1.20
2019-03-19T16:57:45.437Z,1.17
2019-03-19T17:00:16.454Z,1.33
2019-03-19T17:02:45.789Z,1.20
2019-03-19T17:05:16.375Z,0.90
2019-03-19T17:07:45.673Z,1.13
2019-03-19T17:10:15.509Z,1.67
2019-03-19T17:12:44.866Z,1.27
2019-03-19T17:15:15.107Z,1.30
2019-03-19T17:17:44.511Z,1.07
2019-03-19T17:20:16.489Z,0.77
2019-03-19T17:22:45.949Z,1.90
2019-03-19T17:25:16.079Z,1.20
2019-03-19T17:27:45.440Z,1.13
2019-03-19T17:30:20.016Z,0.80
2019-03-19T17:32:49.327Z,1.30
2019-03-19T17:35:18.748Z,1.30
2019-03-19T17:37:48.031Z,1.30
2019-03-19T17:40:17.530Z,1.73
2019-03-19T17:42:46.894Z,1.27
2019-03-19T17:45:16.364Z,1.10
2019-03-19T17:47:45.817Z,1.17
2019-03-19T17:50:17.013Z,1.00
2019-03-19T17:52:46.587Z,1.03
2019-03-19T17:55:15.875Z,1.10
2019-03-19T17:57:45.272Z,1.27
2019-03-19T18:00:18.901Z,1.67
2019-03-19T18:02:48.243Z,1.07
2019-03-19T18:05:17.627Z,1.50
2019-03-19T18:07:46.961Z,1.27
2019-03-19T18:10:16.287Z,1.47
2019-03-19T18:12:45.637Z,1.67
2019-03-19T18:15:15.075Z,1.73
2019-03-19T18:17:44.450Z,1.40
2019-03-19T18:20:13.989Z,1.27
2019-03-19T18:22:43.343Z,1.33
2019-03-19T18:25:12.850Z,1.37
2019-03-19T18:27:42.205Z,1.30
2019-03-19T18:30:12.617Z,1.93
2019-03-19T18:32:42.170Z,1.13
2019-03-19T18:35:11.552Z,1.33
2019-03-19T18:37:40.905Z,1.23
2019-03-19T18:40:10.279Z,1.20
2019-03-19T18:42:39.605Z,1.10
2019-03-19T18:45:09.007Z,1.30
2019-03-19T18:47:38.335Z,1.17
2019-03-19T18:50:10.137Z,1.10
2019-03-19T18:52:39.493Z,1.53
2019-03-19T18:55:09.042Z,1.87
2019-03-19T18:57:38.489Z,1.37
2019-03-19T19:00:11.371Z,1.10
2019-03-19T19:02:49.157Z,1.27
2019-03-19T19:05:12.206Z,1.50
2019-03-19T19:07:41.548Z,1.80
2019-03-19T19:10:13.981Z,2.33
2019-03-19T19:12:43.570Z,2.87
2019-03-19T19:15:14.308Z,2.13
2019-03-19T19:17:43.726Z,2.23
2019-03-19T19:20:13.209Z,2.17
2019-03-19T19:22:42.588Z,1.93
2019-03-19T19:25:15.534Z,2.50
2019-03-19T19:27:44.887Z,1.67
2019-03-19T19:30:18.487Z,2.20
2019-03-19T19:32:47.829Z,1.73
2019-03-19T19:35:17.335Z,2.00
2019-03-19T19:37:46.673Z,2.53
2019-03-19T19:40:16.069Z,1.97
2019-03-19T19:42:45.738Z,1.87
2019-03-19T19:45:15.140Z,2.40
2019-03-19T19:47:44.474Z,1.60
2019-03-19T19:50:14.654Z,1.50
2019-03-19T19:52:44.162Z,1.50
2019-03-19T19:55:14.529Z,1.77
2019-03-19T19:57:44.183Z,2.00
2019-03-19T20:00:15.743Z,1.90
2019-03-19T20:02:45.316Z,1.90
2019-03-19T20:05:15.285Z,1.93
2019-03-19T20:07:44.754Z,1.53
2019-03-19T20:10:15.930Z,1.80
2019-03-19T20:12:45.258Z,2.10
2019-03-19T20:15:14.839Z,1.70
2019-03-19T20:17:44.177Z,1.50
2019-03-19T20:20:15.076Z,1.77
2019-03-19T20:22:44.941Z,1.50
2019-03-19T20:25:14.544Z,1.60
2019-03-19T20:27:43.901Z,1.97
2019-03-19T20:30:15.600Z,1.90
2019-03-19T20:32:44.940Z,2.20
2019-03-19T20:35:22.200Z,1.77
2019-03-19T20:37:51.532Z,1.70
2019-03-19T20:40:21.102Z,1.57
2019-03-19T20:42:50.420Z,1.67
2019-03-19T20:45:19.880Z,1.33
2019-03-19T20:47:49.208Z,2.20
2019-03-19T20:50:21.278Z,1.90
2019-03-19T20:52:52.701Z,1.50
2019-03-19T20:55:22.028Z,1.60
2019-03-19T20:57:51.374Z,1.23
2019-03-19T21:00:20.713Z,1.37
2019-03-19T21:02:50.191Z,1.93
2019-03-19T21:05:19.584Z,3.37
2019-03-19T21:07:48.897Z,2.83
2019-03-19T21:10:19.029Z,2.40
2019-03-19T21:12:48.614Z,2.00
2019-03-19T21:15:19.581Z,2.20
2019-03-19T21:17:49.252Z,2.60
2019-03-19T21:20:18.590Z,2.17
2019-03-19T21:22:47.933Z,2.10
2019-03-19T21:25:17.285Z,1.80
2019-03-19T21:27:46.798Z,1.73
2019-03-19T21:30:16.732Z,1.43
2019-03-19T21:32:46.099Z,2.37
2019-03-19T21:35:17.003Z,4.10
2019-03-19T21:37:46.349Z,5.73
2019-03-19T21:40:15.762Z,3.10
2019-03-19T21:42:45.865Z,2.27
2019-03-19T21:45:15.544Z,1.80
2019-03-19T21:47:44.865Z,2.10
2019-03-19T21:50:14.918Z,2.30
2019-03-19T21:52:44.479Z,3.33
2019-03-19T21:55:16.620Z,2.27
2019-03-19T21:57:45.973Z,2.70
2019-03-19T22:00:16.454Z,2.20
2019-03-19T22:02:45.805Z,2.40
2019-03-19T22:05:16.939Z,2.40
2019-03-19T22:07:46.409Z,2.37
2019-03-19T22:10:15.825Z,2.37
2019-03-19T22:12:45.132Z,2.00
2019-03-19T22:15:16.165Z,1.97
2019-03-19T22:17:45.494Z,2.43
2019-03-19T22:20:15.460Z,2.60
2019-03-19T22:22:44.992Z,2.30
2019-03-19T22:25:14.400Z,2.30
2019-03-19T22:27:43.786Z,2.20
2019-03-19T22:30:14.799Z,2.77
2019-03-19T22:32:44.225Z,4.20
2019-03-19T22:35:13.643Z,6.10
2019-03-19T22:37:43.185Z,5.40
2019-03-19T22:40:13.570Z,4.20
2019-03-19T22:42:43.037Z,6.07
2019-03-19T22:45:13.732Z,6.33
2019-03-19T22:47:43.090Z,6.17
2019-03-19T22:50:13.119Z,5.10
2019-03-19T22:52:42.460Z,4.73
2019-03-19T22:55:11.844Z,4.00
2019-03-19T22:57:43.210Z,3.30
2019-03-19T23:00:31.819Z,3.50
2019-03-19T23:03:02.246Z,3.07
2019-03-19T23:05:31.565Z,3.03
2019-03-19T23:08:00.910Z,3.50
2019-03-19T23:10:30.221Z,3.93
2019-03-19T23:12:59.574Z,4.03
2019-03-19T23:15:29.013Z,4.23
2019-03-19T23:18:00.625Z,4.03
2019-03-19T23:20:29.971Z,3.70
2019-03-19T23:22:59.332Z,3.50
2019-03-19T23:25:28.692Z,3.37
2019-03-19T23:27:58.042Z,3.60
2019-03-19T23:30:27.492Z,3.90
2019-03-19T23:32:56.815Z,3.70
2019-03-19T23:35:26.144Z,3.77
2019-03-19T23:37:55.537Z,3.50
2019-03-19T23:40:24.880Z,3.67
2019-03-19T23:42:54.258Z,3.13
2019-03-19T23:45:24.533Z,3.20
2019-03-19T23:47:53.882Z,3.17
2019-03-19T23:50:23.226Z,3.40
2019-03-19T23:52:52.559Z,3.10
2019-03-19T23:55:23.957Z,3.40
2019-03-19T23:57:53.295Z,2.67
